sensor_id;sensor_type;location;lat;lon;timestamp;P1;durP1;ratioP1;P2;durP2;ratioP2
21030;SDS011;61072;47.808;7.636;2023-01-06T00:00:34;1.00;;;0.80;;
21030;SDS011;61072;47.808;7.636;2023-01-06T00:03:02;1.58;;;0.80;;
21030;SDS011;61072;47.808;7.636;2023-01-06T00:05:29;1.38;;;0.75;;
21030;SDS011;61072;47.808;7.636;2023-01-06T00:07:55;1.75;;;0.90;;
21030;SDS011;61072;47.808;7.636;2023-01-06T00:10:22;1.85;;;1.10;;
21030;SDS011;61072;47.808;7.636;2023-01-06T00:12:49;1.35;;;0.70;;
21030;SDS011;61072;47.808;7.636;2023-01-06T00:15:17;1.58;;;1.00;;
21030;SDS011;61072;47.808;7.636;2023-01-06T00:17:44;0.63;;;0.60;;
21030;SDS011;61072;47.808;7.636;2023-01-06T00:20:11;1.10;;;0.90;;
21030;SDS011;61072;47.808;7.636;2023-01-06T00:22:39;0.98;;;0.70;;
21030;SDS011;61072;47.808;7.636;2023-01-06T00:25:06;1.30;;;0.70;;
21030;SDS011;61072;47.808;7.636;2023-01-06T00:27:35;0.77;;;0.70;;
21030;SDS011;61072;47.808;7.636;2023-01-06T00:30:03;0.95;;;0.82;;
21030;SDS011;61072;47.808;7.636;2023-01-06T00:32:31;1.73;;;0.80;;
21030;SDS011;61072;47.808;7.636;2023-01-06T00:34:58;1.40;;;0.60;;
21030;SDS011;61072;47.808;7.636;2023-01-06T00:37:24;1.00;;;0.90;;
21030;SDS011;61072;47.808;7.636;2023-01-06T00:39:51;0.82;;;0.70;;
21030;SDS011;61072;47.808;7.636;2023-01-06T00:42:18;1.30;;;0.90;;
21030;SDS011;61072;47.808;7.636;2023-01-06T00:44:44;1.70;;;0.93;;
21030;SDS011;61072;47.808;7.636;2023-01-06T00:47:11;3.70;;;0.88;;
21030;SDS011;61072;47.808;7.636;2023-01-06T00:49:38;1.10;;;0.90;;
21030;SDS011;61072;47.808;7.636;2023-01-06T00:52:04;1.45;;;0.77;;
21030;SDS011;61072;47.808;7.636;2023-01-06T00:54:31;1.33;;;0.95;;
21030;SDS011;61072;47.808;7.636;2023-01-06T00:56:58;0.95;;;0.80;;
21030;SDS011;61072;47.808;7.636;2023-01-06T00:59:25;0.80;;;0.80;;
21030;SDS011;61072;47.808;7.636;2023-01-06T01:01:53;4.65;;;1.00;;
21030;SDS011;61072;47.808;7.636;2023-01-06T01:04:21;2.95;;;1.02;;
21030;SDS011;61072;47.808;7.636;2023-01-06T01:06:50;1.45;;;1.00;;
21030;SDS011;61072;47.808;7.636;2023-01-06T01:09:19;2.60;;;0.93;;
21030;SDS011;61072;47.808;7.636;2023-01-06T01:11:47;2.38;;;1.00;;
21030;SDS011;61072;47.808;7.636;2023-01-06T01:14:34;1.58;;;1.00;;
21030;SDS011;61072;47.808;7.636;2023-01-06T01:17:12;1.83;;;0.90;;
21030;SDS011;61072;47.808;7.636;2023-01-06T01:19:49;1.98;;;0.90;;
21030;SDS011;61072;47.808;7.636;2023-01-06T01:22:17;4.05;;;1.10;;
21030;SDS011;61072;47.808;7.636;2023-01-06T01:24:43;2.17;;;1.30;;
21030;SDS011;61072;47.808;7.636;2023-01-06T01:27:10;4.05;;;1.33;;
21030;SDS011;61072;47.808;7.636;2023-01-06T01:29:37;1.42;;;0.82;;
21030;SDS011;61072;47.808;7.636;2023-01-06T01:32:04;0.70;;;0.70;;
21030;SDS011;61072;47.808;7.636;2023-01-06T01:34:31;1.63;;;1.00;;
21030;SDS011;61072;47.808;7.636;2023-01-06T01:36:58;1.38;;;1.10;;
21030;SDS011;61072;47.808;7.636;2023-01-06T01:39:25;1.92;;;1.35;;
21030;SDS011;61072;47.808;7.636;2023-01-06T01:41:54;2.35;;;1.27;;
21030;SDS011;61072;47.808;7.636;2023-01-06T01:47:37;6.57;;;1.33;;
21030;SDS011;61072;47.808;7.636;2023-01-06T01:50:24;1.33;;;1.20;;
21030;SDS011;61072;47.808;7.636;2023-01-06T01:52:53;2.55;;;1.60;;
21030;SDS011;61072;47.808;7.636;2023-01-06T01:55:25;4.30;;;1.38;;
21030;SDS011;61072;47.808;7.636;2023-01-06T01:57:56;2.55;;;1.92;;
21030;SDS011;61072;47.808;7.636;2023-01-06T02:00:27;2.30;;;1.40;;
21030;SDS011;61072;47.808;7.636;2023-01-06T02:02:54;3.47;;;1.70;;
21030;SDS011;61072;47.808;7.636;2023-01-06T02:05:22;2.65;;;1.90;;
21030;SDS011;61072;47.808;7.636;2023-01-06T02:07:50;3.13;;;1.75;;
21030;SDS011;61072;47.808;7.636;2023-01-06T02:10:19;2.63;;;1.60;;
21030;SDS011;61072;47.808;7.636;2023-01-06T02:12:47;4.20;;;2.30;;
21030;SDS011;61072;47.808;7.636;2023-01-06T02:15:20;3.53;;;2.13;;
21030;SDS011;61072;47.808;7.636;2023-01-06T02:20:45;2.55;;;2.17;;
21030;SDS011;61072;47.808;7.636;2023-01-06T02:24:17;3.67;;;2.20;;
21030;SDS011;61072;47.808;7.636;2023-01-06T02:34:36;2.67;;;2.10;;
21030;SDS011;61072;47.808;7.636;2023-01-06T02:45:31;2.38;;;1.98;;
21030;SDS011;61072;47.808;7.636;2023-01-06T02:48:20;2.33;;;1.95;;
21030;SDS011;61072;47.808;7.636;2023-01-06T02:51:05;2.83;;;1.95;;
21030;SDS011;61072;47.808;7.636;2023-01-06T02:56:18;2.65;;;1.60;;
21030;SDS011;61072;47.808;7.636;2023-01-06T03:01:41;2.03;;;1.40;;
21030;SDS011;61072;47.808;7.636;2023-01-06T03:04:13;2.08;;;1.67;;
21030;SDS011;61072;47.808;7.636;2023-01-06T03:06:44;1.70;;;1.42;;
21030;SDS011;61072;47.808;7.636;2023-01-06T03:09:14;1.90;;;1.48;;
21030;SDS011;61072;47.808;7.636;2023-01-06T03:11:50;1.63;;;1.48;;
21030;SDS011;61072;47.808;7.636;2023-01-06T03:14:30;2.20;;;1.48;;
21030;SDS011;61072;47.808;7.636;2023-01-06T03:17:00;3.25;;;2.15;;
21030;SDS011;61072;47.808;7.636;2023-01-06T03:19:27;2.50;;;1.45;;
21030;SDS011;61072;47.808;7.636;2023-01-06T03:21:54;1.73;;;1.40;;
21030;SDS011;61072;47.808;7.636;2023-01-06T03:24:22;2.65;;;1.50;;
21030;SDS011;61072;47.808;7.636;2023-01-06T03:26:48;3.83;;;1.90;;
21030;SDS011;61072;47.808;7.636;2023-01-06T03:29:18;2.72;;;1.88;;
21030;SDS011;61072;47.808;7.636;2023-01-06T03:37:25;2.47;;;1.60;;
21030;SDS011;61072;47.808;7.636;2023-01-06T03:42:52;2.03;;;1.30;;
21030;SDS011;61072;47.808;7.636;2023-01-06T03:45:47;1.85;;;1.30;;
21030;SDS011;61072;47.808;7.636;2023-01-06T03:57:10;1.15;;;1.05;;
21030;SDS011;61072;47.808;7.636;2023-01-06T03:59:41;1.42;;;1.20;;
21030;SDS011;61072;47.808;7.636;2023-01-06T04:02:11;2.05;;;1.08;;
21030;SDS011;61072;47.808;7.636;2023-01-06T04:04:39;1.13;;;1.02;;
21030;SDS011;61072;47.808;7.636;2023-01-06T04:07:06;2.63;;;0.90;;
21030;SDS011;61072;47.808;7.636;2023-01-06T04:09:33;3.10;;;1.20;;
21030;SDS011;61072;47.808;7.636;2023-01-06T04:11:59;1.40;;;0.80;;
21030;SDS011;61072;47.808;7.636;2023-01-06T04:14:44;1.17;;;0.98;;
21030;SDS011;61072;47.808;7.636;2023-01-06T04:17:11;0.80;;;0.75;;
21030;SDS011;61072;47.808;7.636;2023-01-06T04:19:38;1.75;;;0.98;;
21030;SDS011;61072;47.808;7.636;2023-01-06T04:22:05;3.00;;;1.10;;
21030;SDS011;61072;47.808;7.636;2023-01-06T04:24:32;0.90;;;0.75;;
21030;SDS011;61072;47.808;7.636;2023-01-06T04:26:58;1.08;;;0.70;;
21030;SDS011;61072;47.808;7.636;2023-01-06T04:29:25;0.70;;;0.68;;
21030;SDS011;61072;47.808;7.636;2023-01-06T04:31:52;1.10;;;0.73;;
21030;SDS011;61072;47.808;7.636;2023-01-06T04:34:18;1.55;;;0.88;;
21030;SDS011;61072;47.808;7.636;2023-01-06T04:36:45;0.50;;;0.50;;
21030;SDS011;61072;47.808;7.636;2023-01-06T04:39:11;0.60;;;0.60;;
21030;SDS011;61072;47.808;7.636;2023-01-06T04:41:38;0.60;;;0.60;;
21030;SDS011;61072;47.808;7.636;2023-01-06T04:44:05;0.65;;;0.50;;
21030;SDS011;61072;47.808;7.636;2023-01-06T04:46:32;0.70;;;0.60;;
21030;SDS011;61072;47.808;7.636;2023-01-06T04:48:58;0.57;;;0.57;;
21030;SDS011;61072;47.808;7.636;2023-01-06T04:51:25;0.75;;;0.52;;
21030;SDS011;61072;47.808;7.636;2023-01-06T04:53:51;2.47;;;0.73;;
21030;SDS011;61072;47.808;7.636;2023-01-06T04:56:18;0.70;;;0.70;;
21030;SDS011;61072;47.808;7.636;2023-01-06T04:58:45;1.20;;;0.98;;
21030;SDS011;61072;47.808;7.636;2023-01-06T05:01:12;0.82;;;0.50;;
21030;SDS011;61072;47.808;7.636;2023-01-06T05:03:39;1.13;;;0.80;;
21030;SDS011;61072;47.808;7.636;2023-01-06T05:06:07;2.13;;;0.93;;
21030;SDS011;61072;47.808;7.636;2023-01-06T05:08:35;0.77;;;0.73;;
21030;SDS011;61072;47.808;7.636;2023-01-06T05:11:05;0.93;;;0.85;;
21030;SDS011;61072;47.808;7.636;2023-01-06T05:13:39;1.05;;;0.70;;
21030;SDS011;61072;47.808;7.636;2023-01-06T05:16:07;1.20;;;0.80;;
21030;SDS011;61072;47.808;7.636;2023-01-06T05:18:41;2.30;;;0.80;;
21030;SDS011;61072;47.808;7.636;2023-01-06T05:21:07;0.82;;;0.70;;
21030;SDS011;61072;47.808;7.636;2023-01-06T05:23:37;3.50;;;1.00;;
21030;SDS011;61072;47.808;7.636;2023-01-06T05:26:04;1.05;;;0.90;;
21030;SDS011;61072;47.808;7.636;2023-01-06T05:28:31;1.90;;;1.05;;
21030;SDS011;61072;47.808;7.636;2023-01-06T05:31:00;0.80;;;0.80;;
21030;SDS011;61072;47.808;7.636;2023-01-06T05:33:30;1.08;;;0.98;;
21030;SDS011;61072;47.808;7.636;2023-01-06T05:35:59;2.35;;;0.90;;
21030;SDS011;61072;47.808;7.636;2023-01-06T05:38:26;1.30;;;0.90;;
21030;SDS011;61072;47.808;7.636;2023-01-06T05:40:53;1.02;;;0.70;;
21030;SDS011;61072;47.808;7.636;2023-01-06T05:43:22;0.80;;;0.77;;
21030;SDS011;61072;47.808;7.636;2023-01-06T05:45:49;1.40;;;1.02;;
21030;SDS011;61072;47.808;7.636;2023-01-06T05:48:16;1.20;;;0.95;;
21030;SDS011;61072;47.808;7.636;2023-01-06T05:50:42;0.80;;;0.80;;
21030;SDS011;61072;47.808;7.636;2023-01-06T05:53:09;1.35;;;0.68;;
21030;SDS011;61072;47.808;7.636;2023-01-06T05:55:36;0.82;;;0.82;;
21030;SDS011;61072;47.808;7.636;2023-01-06T05:58:02;1.13;;;0.90;;
21030;SDS011;61072;47.808;7.636;2023-01-06T06:00:29;1.23;;;0.90;;
21030;SDS011;61072;47.808;7.636;2023-01-06T06:02:56;0.93;;;0.82;;
21030;SDS011;61072;47.808;7.636;2023-01-06T06:05:22;0.80;;;0.80;;
21030;SDS011;61072;47.808;7.636;2023-01-06T06:07:53;1.00;;;0.77;;
21030;SDS011;61072;47.808;7.636;2023-01-06T06:10:21;1.38;;;0.85;;
21030;SDS011;61072;47.808;7.636;2023-01-06T06:12:50;1.38;;;1.02;;
21030;SDS011;61072;47.808;7.636;2023-01-06T06:15:18;1.58;;;1.17;;
21030;SDS011;61072;47.808;7.636;2023-01-06T06:17:44;1.20;;;1.10;;
21030;SDS011;61072;47.808;7.636;2023-01-06T06:20:11;1.10;;;0.90;;
21030;SDS011;61072;47.808;7.636;2023-01-06T06:22:38;2.20;;;1.00;;
21030;SDS011;61072;47.808;7.636;2023-01-06T06:25:04;1.38;;;1.27;;
21030;SDS011;61072;47.808;7.636;2023-01-06T06:27:31;4.80;;;1.58;;
21030;SDS011;61072;47.808;7.636;2023-01-06T06:29:58;1.85;;;1.30;;
21030;SDS011;61072;47.808;7.636;2023-01-06T06:32:28;1.05;;;0.95;;
21030;SDS011;61072;47.808;7.636;2023-01-06T06:37:21;0.73;;;0.63;;
21030;SDS011;61072;47.808;7.636;2023-01-06T06:39:48;1.15;;;0.80;;
21030;SDS011;61072;47.808;7.636;2023-01-06T06:42:15;0.60;;;0.60;;
21030;SDS011;61072;47.808;7.636;2023-01-06T06:44:41;2.90;;;0.80;;
21030;SDS011;61072;47.808;7.636;2023-01-06T06:47:08;0.80;;;0.80;;
21030;SDS011;61072;47.808;7.636;2023-01-06T06:49:35;2.58;;;1.52;;
21030;SDS011;61072;47.808;7.636;2023-01-06T06:52:01;3.05;;;1.20;;
21030;SDS011;61072;47.808;7.636;2023-01-06T06:54:28;1.67;;;1.30;;
21030;SDS011;61072;47.808;7.636;2023-01-06T06:56:54;1.45;;;1.23;;
21030;SDS011;61072;47.808;7.636;2023-01-06T06:59:22;0.90;;;0.80;;
21030;SDS011;61072;47.808;7.636;2023-01-06T07:01:48;1.40;;;1.17;;
21030;SDS011;61072;47.808;7.636;2023-01-06T07:04:15;2.00;;;1.70;;
21030;SDS011;61072;47.808;7.636;2023-01-06T07:06:42;3.30;;;1.70;;
21030;SDS011;61072;47.808;7.636;2023-01-06T07:09:08;1.20;;;1.02;;
21030;SDS011;61072;47.808;7.636;2023-01-06T07:11:35;1.73;;;1.10;;
21030;SDS011;61072;47.808;7.636;2023-01-06T07:14:02;1.33;;;0.82;;
21030;SDS011;61072;47.808;7.636;2023-01-06T07:16:28;1.00;;;0.90;;
21030;SDS011;61072;47.808;7.636;2023-01-06T07:18:55;0.98;;;0.88;;
21030;SDS011;61072;47.808;7.636;2023-01-06T07:21:22;0.90;;;0.88;;
21030;SDS011;61072;47.808;7.636;2023-01-06T07:23:49;0.77;;;0.77;;
21030;SDS011;61072;47.808;7.636;2023-01-06T07:26:15;1.05;;;0.70;;
21030;SDS011;61072;47.808;7.636;2023-01-06T07:28:42;0.93;;;0.82;;
21030;SDS011;61072;47.808;7.636;2023-01-06T07:31:09;1.35;;;1.00;;
21030;SDS011;61072;47.808;7.636;2023-01-06T07:33:36;0.90;;;0.80;;
21030;SDS011;61072;47.808;7.636;2023-01-06T07:36:02;2.88;;;0.93;;
21030;SDS011;61072;47.808;7.636;2023-01-06T07:38:29;2.42;;;1.50;;
21030;SDS011;61072;47.808;7.636;2023-01-06T07:40:59;3.45;;;1.67;;
21030;SDS011;61072;47.808;7.636;2023-01-06T07:43:26;0.82;;;0.82;;
21030;SDS011;61072;47.808;7.636;2023-01-06T07:45:53;0.88;;;0.80;;
21030;SDS011;61072;47.808;7.636;2023-01-06T07:48:19;1.35;;;0.90;;
21030;SDS011;61072;47.808;7.636;2023-01-06T07:50:46;2.47;;;1.38;;
21030;SDS011;61072;47.808;7.636;2023-01-06T07:53:12;2.25;;;0.70;;
21030;SDS011;61072;47.808;7.636;2023-01-06T07:55:39;1.35;;;0.60;;
21030;SDS011;61072;47.808;7.636;2023-01-06T07:58:06;1.00;;;0.75;;
21030;SDS011;61072;47.808;7.636;2023-01-06T08:00:34;1.65;;;0.68;;
21030;SDS011;61072;47.808;7.636;2023-01-06T08:03:02;0.77;;;0.70;;
21030;SDS011;61072;47.808;7.636;2023-01-06T08:05:30;2.28;;;0.90;;
21030;SDS011;61072;47.808;7.636;2023-01-06T08:07:57;0.70;;;0.60;;
21030;SDS011;61072;47.808;7.636;2023-01-06T08:10:24;0.98;;;0.60;;
21030;SDS011;61072;47.808;7.636;2023-01-06T08:12:51;0.65;;;0.50;;
21030;SDS011;61072;47.808;7.636;2023-01-06T08:15:17;1.30;;;1.02;;
21030;SDS011;61072;47.808;7.636;2023-01-06T08:17:44;0.95;;;0.88;;
21030;SDS011;61072;47.808;7.636;2023-01-06T08:20:10;2.20;;;1.30;;
21030;SDS011;61072;47.808;7.636;2023-01-06T08:22:37;1.98;;;0.93;;
21030;SDS011;61072;47.808;7.636;2023-01-06T08:25:04;0.60;;;0.60;;
21030;SDS011;61072;47.808;7.636;2023-01-06T08:27:31;0.82;;;0.43;;
21030;SDS011;61072;47.808;7.636;2023-01-06T08:29:58;1.45;;;0.80;;
21030;SDS011;61072;47.808;7.636;2023-01-06T08:32:24;0.70;;;0.70;;
21030;SDS011;61072;47.808;7.636;2023-01-06T08:34:51;1.33;;;1.08;;
21030;SDS011;61072;47.808;7.636;2023-01-06T08:37:17;2.53;;;2.00;;
21030;SDS011;61072;47.808;7.636;2023-01-06T08:39:44;1.63;;;1.40;;
21030;SDS011;61072;47.808;7.636;2023-01-06T08:42:11;1.13;;;0.70;;
21030;SDS011;61072;47.808;7.636;2023-01-06T08:44:38;1.83;;;0.68;;
21030;SDS011;61072;47.808;7.636;2023-01-06T08:47:05;1.95;;;1.15;;
21030;SDS011;61072;47.808;7.636;2023-01-06T08:49:32;2.20;;;0.68;;
21030;SDS011;61072;47.808;7.636;2023-01-06T08:51:58;3.60;;;0.88;;
21030;SDS011;61072;47.808;7.636;2023-01-06T08:54:26;0.60;;;0.60;;
21030;SDS011;61072;47.808;7.636;2023-01-06T08:56:54;0.80;;;0.70;;
21030;SDS011;61072;47.808;7.636;2023-01-06T08:59:22;1.30;;;0.80;;
21030;SDS011;61072;47.808;7.636;2023-01-06T09:01:48;2.05;;;0.93;;
21030;SDS011;61072;47.808;7.636;2023-01-06T09:04:15;0.93;;;0.70;;
21030;SDS011;61072;47.808;7.636;2023-01-06T09:06:42;1.98;;;0.57;;
21030;SDS011;61072;47.808;7.636;2023-01-06T09:09:09;0.68;;;0.60;;
21030;SDS011;61072;47.808;7.636;2023-01-06T09:11:39;0.65;;;0.60;;
21030;SDS011;61072;47.808;7.636;2023-01-06T09:14:09;1.52;;;0.82;;
21030;SDS011;61072;47.808;7.636;2023-01-06T09:16:39;2.22;;;0.82;;
21030;SDS011;61072;47.808;7.636;2023-01-06T09:19:06;1.90;;;0.70;;
21030;SDS011;61072;47.808;7.636;2023-01-06T09:21:35;0.80;;;0.70;;
21030;SDS011;61072;47.808;7.636;2023-01-06T09:24:03;1.17;;;0.80;;
21030;SDS011;61072;47.808;7.636;2023-01-06T09:26:29;0.75;;;0.50;;
21030;SDS011;61072;47.808;7.636;2023-01-06T09:28:56;1.42;;;0.60;;
21030;SDS011;61072;47.808;7.636;2023-01-06T09:31:23;1.40;;;0.70;;
21030;SDS011;61072;47.808;7.636;2023-01-06T09:33:50;1.33;;;0.68;;
21030;SDS011;61072;47.808;7.636;2023-01-06T09:36:16;1.08;;;0.90;;
21030;SDS011;61072;47.808;7.636;2023-01-06T09:38:43;2.15;;;0.70;;
21030;SDS011;61072;47.808;7.636;2023-01-06T09:46:43;1.95;;;0.95;;
21030;SDS011;61072;47.808;7.636;2023-01-06T09:49:47;1.00;;;0.55;;
21030;SDS011;61072;47.808;7.636;2023-01-06T09:52:11;2.58;;;0.50;;
21030;SDS011;61072;47.808;7.636;2023-01-06T09:54:46;0.90;;;0.70;;
21030;SDS011;61072;47.808;7.636;2023-01-06T09:57:35;0.45;;;0.43;;
21030;SDS011;61072;47.808;7.636;2023-01-06T10:00:24;1.77;;;0.60;;
21030;SDS011;61072;47.808;7.636;2023-01-06T10:03:01;1.02;;;0.60;;
21030;SDS011;61072;47.808;7.636;2023-01-06T10:08:27;2.50;;;0.73;;
21030;SDS011;61072;47.808;7.636;2023-01-06T10:11:16;2.28;;;0.57;;
21030;SDS011;61072;47.808;7.636;2023-01-06T10:19:47;0.50;;;0.47;;
21030;SDS011;61072;47.808;7.636;2023-01-06T10:25:43;1.70;;;0.60;;
21030;SDS011;61072;47.808;7.636;2023-01-06T10:28:21;1.25;;;0.60;;
21030;SDS011;61072;47.808;7.636;2023-01-06T10:30:56;0.65;;;0.65;;
21030;SDS011;61072;47.808;7.636;2023-01-06T10:33:31;1.02;;;0.45;;
21030;SDS011;61072;47.808;7.636;2023-01-06T10:36:02;2.45;;;0.90;;
21030;SDS011;61072;47.808;7.636;2023-01-06T10:38:36;2.85;;;0.80;;
21030;SDS011;61072;47.808;7.636;2023-01-06T10:44:10;1.90;;;0.80;;
21030;SDS011;61072;47.808;7.636;2023-01-06T10:46:38;1.50;;;0.60;;
21030;SDS011;61072;47.808;7.636;2023-01-06T10:49:12;2.80;;;0.60;;
21030;SDS011;61072;47.808;7.636;2023-01-06T10:51:41;2.13;;;0.93;;
21030;SDS011;61072;47.808;7.636;2023-01-06T10:54:11;3.72;;;0.90;;
21030;SDS011;61072;47.808;7.636;2023-01-06T10:56:46;0.88;;;0.50;;
21030;SDS011;61072;47.808;7.636;2023-01-06T10:59:17;0.68;;;0.60;;
21030;SDS011;61072;47.808;7.636;2023-01-06T11:01:51;0.50;;;0.50;;
21030;SDS011;61072;47.808;7.636;2023-01-06T11:04:20;1.55;;;0.70;;
21030;SDS011;61072;47.808;7.636;2023-01-06T11:06:53;0.50;;;0.40;;
21030;SDS011;61072;47.808;7.636;2023-01-06T11:09:28;1.05;;;0.50;;
21030;SDS011;61072;47.808;7.636;2023-01-06T11:12:13;0.90;;;0.50;;
21030;SDS011;61072;47.808;7.636;2023-01-06T11:14:56;0.57;;;0.40;;
21030;SDS011;61072;47.808;7.636;2023-01-06T11:17:25;0.73;;;0.57;;
21030;SDS011;61072;47.808;7.636;2023-01-06T11:22:39;0.82;;;0.60;;
21030;SDS011;61072;47.808;7.636;2023-01-06T11:27:46;0.82;;;0.60;;
21030;SDS011;61072;47.808;7.636;2023-01-06T11:30:24;1.17;;;0.50;;
21030;SDS011;61072;47.808;7.636;2023-01-06T11:32:53;0.52;;;0.40;;
21030;SDS011;61072;47.808;7.636;2023-01-06T11:35:21;0.50;;;0.45;;
21030;SDS011;61072;47.808;7.636;2023-01-06T11:37:57;0.30;;;0.30;;
21030;SDS011;61072;47.808;7.636;2023-01-06T11:40:28;0.70;;;0.50;;
21030;SDS011;61072;47.808;7.636;2023-01-06T11:42:58;0.80;;;0.68;;
21030;SDS011;61072;47.808;7.636;2023-01-06T11:45:29;0.40;;;0.40;;
21030;SDS011;61072;47.808;7.636;2023-01-06T11:48:02;4.57;;;0.60;;
21030;SDS011;61072;47.808;7.636;2023-01-06T11:50:32;0.95;;;0.65;;
21030;SDS011;61072;47.808;7.636;2023-01-06T11:53:00;0.75;;;0.60;;
21030;SDS011;61072;47.808;7.636;2023-01-06T11:55:28;0.55;;;0.55;;
21030;SDS011;61072;47.808;7.636;2023-01-06T11:58:01;1.52;;;0.70;;
21030;SDS011;61072;47.808;7.636;2023-01-06T12:01:08;0.88;;;0.60;;
21030;SDS011;61072;47.808;7.636;2023-01-06T12:03:33;0.88;;;0.80;;
21030;SDS011;61072;47.808;7.636;2023-01-06T12:08:58;0.77;;;0.52;;
21030;SDS011;61072;47.808;7.636;2023-01-06T12:16:56;0.40;;;0.40;;
21030;SDS011;61072;47.808;7.636;2023-01-06T12:19:39;1.45;;;0.50;;
21030;SDS011;61072;47.808;7.636;2023-01-06T12:25:03;1.33;;;0.40;;
21030;SDS011;61072;47.808;7.636;2023-01-06T12:27:39;0.55;;;0.55;;
21030;SDS011;61072;47.808;7.636;2023-01-06T12:30:14;1.58;;;1.00;;
21030;SDS011;61072;47.808;7.636;2023-01-06T12:33:04;2.53;;;1.20;;
21030;SDS011;61072;47.808;7.636;2023-01-06T12:38:15;1.38;;;0.77;;
21030;SDS011;61072;47.808;7.636;2023-01-06T12:41:02;0.88;;;0.60;;
21030;SDS011;61072;47.808;7.636;2023-01-06T12:43:35;3.05;;;0.68;;
21030;SDS011;61072;47.808;7.636;2023-01-06T12:46:14;1.55;;;0.60;;
21030;SDS011;61072;47.808;7.636;2023-01-06T12:49:02;0.52;;;0.52;;
21030;SDS011;61072;47.808;7.636;2023-01-06T12:51:43;0.60;;;0.60;;
21030;SDS011;61072;47.808;7.636;2023-01-06T12:54:17;0.68;;;0.50;;
21030;SDS011;61072;47.808;7.636;2023-01-06T12:56:55;0.40;;;0.40;;
21030;SDS011;61072;47.808;7.636;2023-01-06T13:05:27;0.68;;;0.68;;
21030;SDS011;61072;47.808;7.636;2023-01-06T13:11:04;0.77;;;0.57;;
21030;SDS011;61072;47.808;7.636;2023-01-06T13:13:50;1.15;;;0.70;;
21030;SDS011;61072;47.808;7.636;2023-01-06T13:19:28;0.65;;;0.50;;
21030;SDS011;61072;47.808;7.636;2023-01-06T13:22:34;0.68;;;0.68;;
21030;SDS011;61072;47.808;7.636;2023-01-06T13:39:58;0.32;;;0.30;;
21030;SDS011;61072;47.808;7.636;2023-01-06T13:42:43;0.40;;;0.40;;
21030;SDS011;61072;47.808;7.636;2023-01-06T13:45:13;0.50;;;0.50;;
21030;SDS011;61072;47.808;7.636;2023-01-06T13:47:44;0.77;;;0.50;;
21030;SDS011;61072;47.808;7.636;2023-01-06T13:50:13;0.50;;;0.43;;
21030;SDS011;61072;47.808;7.636;2023-01-06T13:52:41;0.50;;;0.50;;
21030;SDS011;61072;47.808;7.636;2023-01-06T13:57:44;0.45;;;0.40;;
21030;SDS011;61072;47.808;7.636;2023-01-06T14:00:15;0.30;;;0.30;;
21030;SDS011;61072;47.808;7.636;2023-01-06T14:07:52;0.43;;;0.43;;
21030;SDS011;61072;47.808;7.636;2023-01-06T14:10:40;2.47;;;0.80;;
21030;SDS011;61072;47.808;7.636;2023-01-06T14:13:21;0.90;;;0.45;;
21030;SDS011;61072;47.808;7.636;2023-01-06T14:15:51;1.58;;;1.23;;
21030;SDS011;61072;47.808;7.636;2023-01-06T14:18:31;0.98;;;0.45;;
21030;SDS011;61072;47.808;7.636;2023-01-06T14:26:42;0.85;;;0.38;;
21030;SDS011;61072;47.808;7.636;2023-01-06T14:32:56;0.93;;;0.40;;
21030;SDS011;61072;47.808;7.636;2023-01-06T14:35:10;0.47;;;0.40;;
21030;SDS011;61072;47.808;7.636;2023-01-06T14:37:43;0.57;;;0.50;;
21030;SDS011;61072;47.808;7.636;2023-01-06T14:40:22;0.55;;;0.30;;
21030;SDS011;61072;47.808;7.636;2023-01-06T14:42:56;0.50;;;0.40;;
21030;SDS011;61072;47.808;7.636;2023-01-06T14:45:33;2.05;;;0.32;;
21030;SDS011;61072;47.808;7.636;2023-01-06T14:48:07;0.47;;;0.30;;
21030;SDS011;61072;47.808;7.636;2023-01-06T14:50:42;0.70;;;0.50;;
21030;SDS011;61072;47.808;7.636;2023-01-06T14:53:19;1.52;;;0.68;;
21030;SDS011;61072;47.808;7.636;2023-01-06T14:55:50;1.05;;;0.70;;
21030;SDS011;61072;47.808;7.636;2023-01-06T14:58:27;3.35;;;1.50;;
21030;SDS011;61072;47.808;7.636;2023-01-06T15:00:55;1.83;;;0.98;;
21030;SDS011;61072;47.808;7.636;2023-01-06T15:03:22;2.97;;;0.98;;
21030;SDS011;61072;47.808;7.636;2023-01-06T15:05:50;1.58;;;0.80;;
21030;SDS011;61072;47.808;7.636;2023-01-06T15:08:34;1.65;;;0.70;;
21030;SDS011;61072;47.808;7.636;2023-01-06T15:14:00;0.70;;;0.50;;
21030;SDS011;61072;47.808;7.636;2023-01-06T15:18:59;1.67;;;0.60;;
21030;SDS011;61072;47.808;7.636;2023-01-06T15:21:27;0.70;;;0.70;;
21030;SDS011;61072;47.808;7.636;2023-01-06T15:23:54;1.48;;;0.50;;
21030;SDS011;61072;47.808;7.636;2023-01-06T15:26:25;1.63;;;0.93;;
21030;SDS011;61072;47.808;7.636;2023-01-06T15:28:55;1.85;;;0.65;;
21030;SDS011;61072;47.808;7.636;2023-01-06T15:31:33;1.15;;;0.90;;
21030;SDS011;61072;47.808;7.636;2023-01-06T15:34:04;0.90;;;0.55;;
21030;SDS011;61072;47.808;7.636;2023-01-06T15:36:34;0.52;;;0.52;;
21030;SDS011;61072;47.808;7.636;2023-01-06T15:39:04;1.15;;;0.45;;
21030;SDS011;61072;47.808;7.636;2023-01-06T15:41:34;2.58;;;0.47;;
21030;SDS011;61072;47.808;7.636;2023-01-06T15:44:15;2.63;;;0.50;;
21030;SDS011;61072;47.808;7.636;2023-01-06T15:46:47;0.80;;;0.40;;
21030;SDS011;61072;47.808;7.636;2023-01-06T15:49:19;0.55;;;0.43;;
21030;SDS011;61072;47.808;7.636;2023-01-06T15:51:55;1.88;;;0.45;;
21030;SDS011;61072;47.808;7.636;2023-01-06T15:54:24;1.45;;;0.60;;
21030;SDS011;61072;47.808;7.636;2023-01-06T15:56:53;0.75;;;0.70;;
21030;SDS011;61072;47.808;7.636;2023-01-06T15:59:22;0.60;;;0.60;;
21030;SDS011;61072;47.808;7.636;2023-01-06T16:01:49;1.60;;;0.65;;
21030;SDS011;61072;47.808;7.636;2023-01-06T16:04:21;0.60;;;0.60;;
21030;SDS011;61072;47.808;7.636;2023-01-06T16:06:49;1.35;;;0.75;;
21030;SDS011;61072;47.808;7.636;2023-01-06T16:12:06;0.70;;;0.70;;
21030;SDS011;61072;47.808;7.636;2023-01-06T16:14:42;2.40;;;1.05;;
21030;SDS011;61072;47.808;7.636;2023-01-06T16:17:13;2.73;;;1.67;;
21030;SDS011;61072;47.808;7.636;2023-01-06T16:19:44;2.17;;;1.20;;
21030;SDS011;61072;47.808;7.636;2023-01-06T16:25:02;4.95;;;2.20;;
21030;SDS011;61072;47.808;7.636;2023-01-06T16:27:32;4.82;;;2.30;;
21030;SDS011;61072;47.808;7.636;2023-01-06T16:30:33;4.47;;;2.25;;
21030;SDS011;61072;47.808;7.636;2023-01-06T16:32:56;7.65;;;4.63;;
21030;SDS011;61072;47.808;7.636;2023-01-06T16:35:26;7.35;;;4.63;;
21030;SDS011;61072;47.808;7.636;2023-01-06T16:37:54;4.70;;;2.78;;
21030;SDS011;61072;47.808;7.636;2023-01-06T16:40:21;2.28;;;1.70;;
21030;SDS011;61072;47.808;7.636;2023-01-06T16:42:49;2.40;;;1.15;;
21030;SDS011;61072;47.808;7.636;2023-01-06T16:45:25;1.60;;;0.93;;
21030;SDS011;61072;47.808;7.636;2023-01-06T16:47:56;2.15;;;1.17;;
21030;SDS011;61072;47.808;7.636;2023-01-06T16:53:18;1.67;;;1.20;;
21030;SDS011;61072;47.808;7.636;2023-01-06T16:55:54;1.10;;;0.80;;
21030;SDS011;61072;47.808;7.636;2023-01-06T16:58:28;2.05;;;1.20;;
21030;SDS011;61072;47.808;7.636;2023-01-06T17:00:59;1.30;;;1.05;;
21030;SDS011;61072;47.808;7.636;2023-01-06T17:03:34;2.22;;;0.90;;
21030;SDS011;61072;47.808;7.636;2023-01-06T17:06:02;1.35;;;0.95;;
21030;SDS011;61072;47.808;7.636;2023-01-06T17:08:36;1.73;;;1.27;;
21030;SDS011;61072;47.808;7.636;2023-01-06T17:11:11;2.92;;;1.05;;
21030;SDS011;61072;47.808;7.636;2023-01-06T17:16:18;3.53;;;0.98;;
21030;SDS011;61072;47.808;7.636;2023-01-06T17:21:32;1.50;;;0.90;;
21030;SDS011;61072;47.808;7.636;2023-01-06T17:26:33;4.55;;;1.35;;
21030;SDS011;61072;47.808;7.636;2023-01-06T17:29:00;3.35;;;1.58;;
21030;SDS011;61072;47.808;7.636;2023-01-06T17:31:29;2.15;;;1.15;;
21030;SDS011;61072;47.808;7.636;2023-01-06T17:34:20;1.63;;;1.00;;
21030;SDS011;61072;47.808;7.636;2023-01-06T17:36:50;1.65;;;1.02;;
21030;SDS011;61072;47.808;7.636;2023-01-06T17:41:51;1.42;;;1.20;;
21030;SDS011;61072;47.808;7.636;2023-01-06T17:44:44;2.85;;;1.42;;